Time;durP1;ratioP1;P1;durP2;ratioP2;P2;SDS_P1;SDS_P2;PMS_P1;PMS_P2;Temp;Humidity;BMP_temperature;BMP_pressure;BME280_temperature;BME280_humidity;BME280_pressure;Samples;Min_cycle;Max_cycle;Signal;HPM_P1;HPM_P2
2022/03/24 00:02:08;;;;;;;86.40;59.08;;;;;;;;;;4824376;29;20051;-79
2022/03/24 00:04:34;;;;;;;86.35;57.40;;;;;;;;;;4823019;29;20058;-79
2022/03/24 00:07:00;;;;;;;87.00;58.00;;;;;;;;;;4824171;29;20086;-79
2022/03/24 00:09:26;;;;;;;86.65;58.42;;;;;;;;;;4824401;29;20118;-79
2022/03/24 00:11:52;;;;;;;83.40;58.08;;;;;;;;;;4825138;29;20046;-79
2022/03/24 00:14:18;;;;;;;83.53;57.30;;;;;;;;;;4838031;29;20145;-79
2022/03/24 00:16:45;;;;;;;90.22;59.67;;;;;;;;;;4838909;29;20458;-79
2022/03/24 00:19:11;;;;;;;86.25;58.70;;;;;;;;;;4808711;29;20061;-80
2022/03/24 00:21:37;;;;;;;85.78;58.55;;;;;;;;;;4839086;29;20054;-79
2022/03/24 00:24:03;;;;;;;86.03;59.63;;;;;;;;;;4825136;29;20073;-79
2022/03/24 00:26:30;;;;;;;90.53;58.55;;;;;;;;;;4824445;29;20134;-80
2022/03/24 00:28:56;;;;;;;90.22;61.10;;;;;;;;;;4824540;29;20068;-80
2022/03/24 00:31:22;;;;;;;91.47;58.30;;;;;;;;;;4824408;29;20470;-79
2022/03/24 00:33:48;;;;;;;91.68;59.30;;;;;;;;;;4823137;29;20111;-80
2022/03/24 00:36:14;;;;;;;86.22;60.28;;;;;;;;;;4824177;29;20050;-77
2022/03/24 00:38:40;;;;;;;87.50;58.40;;;;;;;;;;4809887;29;20058;-80
2022/03/24 00:41:07;;;;;;;99.57;61.08;;;;;;;;;;4827689;29;20054;-79
2022/03/24 00:43:39;;;;;;;87.88;59.88;;;;;;;;;;4827249;29;20042;-79
2022/03/24 00:46:06;;;;;;;92.63;60.40;;;;;;;;;;4841455;29;20046;-79
2022/03/24 00:48:32;;;;;;;89.32;59.60;;;;;;;;;;4841614;29;20054;-78
2022/03/24 00:50:59;;;;;;;95.03;61.63;;;;;;;;;;4827613;29;20391;-79
2022/03/24 00:53:25;;;;;;;90.35;61.33;;;;;;;;;;4827267;29;20119;-79
2022/03/24 00:55:51;;;;;;;101.45;64.13;;;;;;;;;;4827321;29;20136;-79
2022/03/24 00:58:18;;;;;;;97.20;62.70;;;;;;;;;;4827140;29;20141;-76
2022/03/24 01:00:44;;;;;;;;;;;;;;;;;;4842564;29;20084;-80
2022/03/24 01:03:10;;;;;;;95.75;62.58;;;;;;;;;;4827270;29;20374;-79
2022/03/24 01:05:37;;;;;;;98.13;65.15;;;;;;;;;;4826984;29;20054;-79
2022/03/24 01:08:05;;;;;;;99.28;63.70;;;;;;;;;;4811219;29;20062;-79
2022/03/24 01:10:32;;;;;;;101.57;65.38;;;;;;;;;;4827047;29;20559;-79
2022/03/24 01:13:01;;;;;;;100.57;64.80;;;;;;;;;;4827402;29;20093;-77
2022/03/24 01:15:30;;;;;;;106.13;66.50;;;;;;;;;;4840677;29;20058;-79
2022/03/24 01:17:59;;;;;;;102.93;64.75;;;;;;;;;;4825165;29;20560;-69
2022/03/24 01:20:25;;;;;;;107.05;67.00;;;;;;;;;;4822583;29;20108;-66
2022/03/24 01:22:51;;;;;;;103.97;68.43;;;;;;;;;;4822674;29;20139;-69
2022/03/24 01:25:17;;;;;;;102.35;67.18;;;;;;;;;;4822786;29;20483;-66
2022/03/24 01:27:43;;;;;;;110.45;70.22;;;;;;;;;;4821141;29;20456;-69
2022/03/24 01:30:09;;;;;;;111.45;69.53;;;;;;;;;;4822692;29;20137;-69
2022/03/24 01:32:38;;;;;;;109.75;66.88;;;;;;;;;;4822485;29;20061;-69
2022/03/24 01:35:07;;;;;;;109.97;69.07;;;;;;;;;;4806077;29;20060;-69
2022/03/24 01:37:37;;;;;;;104.28;68.22;;;;;;;;;;4806809;29;20065;-69
2022/03/24 01:40:02;;;;;;;;;;;;;;;;;;4822890;29;20066;-69
2022/03/24 01:42:29;;;;;;;110.70;69.50;;;;;;;;;;4822219;29;19940;-67
2022/03/24 01:44:56;;;;;;;108.28;69.75;;;;;;;;;;4822323;29;20054;-66
2022/03/24 01:47:22;;;;;;;107.25;69.72;;;;;;;;;;4835836;29;20054;-67
2022/03/24 01:49:49;;;;;;;109.63;68.95;;;;;;;;;;4821534;29;20129;-66
2022/03/24 01:52:15;;;;;;;112.82;71.97;;;;;;;;;;4821796;29;20058;-68
2022/03/24 01:54:43;;;;;;;109.65;68.80;;;;;;;;;;4822045;29;20062;-69
2022/03/24 01:57:11;;;;;;;110.05;71.70;;;;;;;;;;4822120;29;20049;-66
2022/03/24 01:59:37;;;;;;;111.82;71.45;;;;;;;;;;4821944;29;20046;-67
2022/03/24 02:02:04;;;;;;;108.90;69.60;;;;;;;;;;4821909;29;20122;-66
2022/03/24 02:04:32;;;;;;;106.95;69.60;;;;;;;;;;4805436;29;20066;-67
2022/03/24 02:06:59;;;;;;;113.57;72.45;;;;;;;;;;4821558;29;20065;-66
2022/03/24 02:09:25;;;;;;;111.28;73.10;;;;;;;;;;4805436;29;20062;-67
2022/03/24 02:11:51;;;;;;;109.90;70.18;;;;;;;;;;4821947;29;20114;-66
2022/03/24 02:14:17;;;;;;;119.55;75.22;;;;;;;;;;4821935;29;20058;-66
2022/03/24 02:16:47;;;;;;;108.43;70.72;;;;;;;;;;4805126;29;20046;-69
2022/03/24 02:19:17;;;;;;;116.75;72.40;;;;;;;;;;4821929;29;20050;-69
2022/03/24 02:21:44;;;;;;;119.97;74.18;;;;;;;;;;4821479;29;20090;-66
2022/03/24 02:24:10;;;;;;;117.78;74.97;;;;;;;;;;4821821;29;20104;-66
2022/03/24 02:26:37;;;;;;;121.05;73.38;;;;;;;;;;4821650;29;20062;-67
2022/03/24 02:29:07;;;;;;;118.63;74.50;;;;;;;;;;4821667;29;20530;-67
2022/03/24 02:31:37;;;;;;;118.55;74.88;;;;;;;;;;4821565;29;20456;-67
2022/03/24 02:35:04;;;;;;;120.95;74.68;;;;;;;;;;4835024;29;20069;-67
2022/03/24 02:36:59;;;;;;;123.45;74.00;;;;;;;;;;4796406;29;20074;-67
2022/03/24 02:39:25;;;;;;;120.28;75.70;;;;;;;;;;4835179;29;20428;-67
2022/03/24 02:41:54;;;;;;;122.05;74.38;;;;;;;;;;4835177;29;20050;-67
2022/03/24 02:44:20;;;;;;;126.55;78.60;;;;;;;;;;4835165;29;20424;-67
2022/03/24 02:46:47;;;;;;;126.97;77.30;;;;;;;;;;4821351;29;20143;-67
2022/03/24 02:49:20;;;;;;;124.50;77.85;;;;;;;;;;4821188;29;20066;-67
2022/03/24 02:51:47;;;;;;;125.95;78.28;;;;;;;;;;4821228;29;20060;-67
2022/03/24 02:54:13;;;;;;;121.88;76.30;;;;;;;;;;4821300;29;20046;-67
2022/03/24 02:56:42;;;;;;;123.38;74.38;;;;;;;;;;4820883;29;20095;-67
2022/03/24 02:59:08;;;;;;;126.13;77.45;;;;;;;;;;4834679;29;20352;-67
2022/03/24 03:01:35;;;;;;;;;;;;;;;;;;4820706;29;20244;-67
2022/03/24 03:04:02;;;;;;;119.55;75.00;;;;;;;;;;4820748;29;20325;-67
2022/03/24 03:06:28;;;;;;;128.65;78.15;;;;;;;;;;4819598;29;20047;-67
2022/03/24 03:08:54;;;;;;;123.38;78.35;;;;;;;;;;4820970;29;20091;-67
2022/03/24 03:11:20;;;;;;;;;;;;;;;;;;4821515;29;20090;-67
2022/03/24 03:13:47;;;;;;;127.22;77.88;;;;;;;;;;4804134;29;19935;-67
2022/03/24 03:16:13;;;;;;;125.22;80.05;;;;;;;;;;4821116;29;20109;-67
2022/03/24 03:18:43;;;;;;;122.82;76.25;;;;;;;;;;4834404;29;20112;-68
2022/03/24 03:21:10;;;;;;;127.25;79.80;;;;;;;;;;4821014;29;20058;-67
2022/03/24 03:23:39;;;;;;;;;;;;;;;;;;4821236;29;20065;-67
2022/03/24 03:26:06;;;;;;;131.90;78.85;;;;;;;;;;4820790;29;19929;-67
2022/03/24 03:28:32;;;;;;;130.52;80.32;;;;;;;;;;4820745;29;20405;-67
2022/03/24 03:30:59;;;;;;;135.55;81.55;;;;;;;;;;4820667;29;20046;-67
2022/03/24 03:33:25;;;;;;;140.63;80.50;;;;;;;;;;4820766;29;20061;-67
2022/03/24 03:35:52;;;;;;;;;;;;;;;;;;4821008;29;20047;-67
2022/03/24 03:38:18;;;;;;;142.02;84.90;;;;;;;;;;4820732;29;20023;-67
2022/03/24 03:40:45;;;;;;;135.00;83.15;;;;;;;;;;4819754;29;20231;-67
2022/03/24 03:43:11;;;;;;;137.05;84.05;;;;;;;;;;4820609;29;20046;-68
2022/03/24 03:45:38;;;;;;;137.10;85.55;;;;;;;;;;4820470;29;20125;-68
2022/03/24 03:48:05;;;;;;;132.73;83.18;;;;;;;;;;4820262;29;20057;-67
2022/03/24 03:50:31;;;;;;;135.57;83.50;;;;;;;;;;4820684;29;20136;-67
2022/03/24 03:52:57;;;;;;;134.52;81.00;;;;;;;;;;4820361;29;20062;-67
2022/03/24 03:55:23;;;;;;;133.23;79.05;;;;;;;;;;4818605;29;20054;-67
2022/03/24 03:57:50;;;;;;;135.88;80.40;;;;;;;;;;4803550;29;20058;-67
2022/03/24 04:03:04;;;;;;;132.00;81.85;;;;;;;;;;4820350;29;20094;-67
2022/03/24 04:05:33;;;;;;;133.65;83.20;;;;;;;;;;4819833;29;20463;-67
2022/03/24 04:08:00;;;;;;;129.25;79.40;;;;;;;;;;4820055;29;20508;-67
2022/03/24 04:10:27;;;;;;;145.82;84.32;;;;;;;;;;4820044;29;20054;-67
2022/03/24 04:12:57;;;;;;;135.50;82.35;;;;;;;;;;4821165;29;20483;-67
2022/03/24 04:15:24;;;;;;;131.80;79.47;;;;;;;;;;4823544;29;20141;-67
2022/03/24 04:17:50;;;;;;;132.55;81.20;;;;;;;;;;4823569;29;20066;-67
2022/03/24 04:20:20;;;;;;;130.10;82.25;;;;;;;;;;4823476;29;20069;-67
2022/03/24 04:22:50;;;;;;;138.68;83.75;;;;;;;;;;4823273;29;20058;-67
2022/03/24 04:25:20;;;;;;;132.00;80.30;;;;;;;;;;4823336;29;20073;-67
2022/03/24 04:27:46;;;;;;;131.73;82.03;;;;;;;;;;4823240;29;20081;-67
2022/03/24 04:30:12;;;;;;;129.30;81.13;;;;;;;;;;4823456;29;20073;-67
2022/03/24 04:32:38;;;;;;;;;;;;;;;;;;4823239;29;20098;-68
2022/03/24 04:35:05;;;;;;;135.32;82.95;;;;;;;;;;4823106;29;20023;-67
2022/03/24 04:37:31;;;;;;;128.98;80.38;;;;;;;;;;4822998;29;20114;-67
2022/03/24 04:39:57;;;;;;;136.13;81.90;;;;;;;;;;4822875;29;20488;-67
2022/03/24 04:42:24;;;;;;;132.93;80.68;;;;;;;;;;4823232;29;20047;-67
2022/03/24 04:44:50;;;;;;;;;;;;;;;;;;4837337;29;20220;-67
2022/03/24 04:47:16;;;;;;;135.95;82.25;;;;;;;;;;4822975;29;19960;-68
2022/03/24 04:49:43;;;;;;;135.43;80.32;;;;;;;;;;4823114;29;20102;-67
2022/03/24 04:52:09;;;;;;;136.38;79.38;;;;;;;;;;4823078;29;20062;-67
2022/03/24 04:54:35;;;;;;;139.20;79.40;;;;;;;;;;4822960;29;20148;-67
2022/03/24 04:57:01;;;;;;;135.02;78.18;;;;;;;;;;4822619;29;20050;-68
2022/03/24 04:59:28;;;;;;;129.73;77.95;;;;;;;;;;4806398;29;20131;-68
2022/03/24 05:01:55;;;;;;;132.75;79.97;;;;;;;;;;4806441;29;20156;-67
2022/03/24 05:04:23;;;;;;;124.00;75.75;;;;;;;;;;4822754;29;20119;-68
2022/03/24 05:06:49;;;;;;;129.90;77.28;;;;;;;;;;4836725;29;20229;-68
2022/03/24 05:09:15;;;;;;;128.32;77.65;;;;;;;;;;4822840;29;20099;-68
2022/03/24 05:11:41;;;;;;;128.88;79.35;;;;;;;;;;4822605;29;20054;-67
2022/03/24 05:14:09;;;;;;;129.57;79.15;;;;;;;;;;4822474;29;20130;-67
2022/03/24 05:16:35;;;;;;;134.32;79.97;;;;;;;;;;4822439;29;20058;-67
2022/03/24 05:19:01;;;;;;;132.48;80.25;;;;;;;;;;4822506;29;20053;-68
2022/03/24 05:21:28;;;;;;;129.95;77.32;;;;;;;;;;4822208;29;20062;-68
2022/03/24 05:23:54;;;;;;;133.70;80.50;;;;;;;;;;4821541;29;20057;-68
2022/03/24 05:26:24;;;;;;;127.40;77.15;;;;;;;;;;4821652;29;20051;-67
2022/03/24 05:28:54;;;;;;;128.88;77.18;;;;;;;;;;4821456;29;20499;-68
2022/03/24 05:31:21;;;;;;;131.15;77.53;;;;;;;;;;4835035;29;20381;-67
2022/03/24 05:33:47;;;;;;;128.27;74.72;;;;;;;;;;4820880;29;20069;-67
2022/03/24 05:36:13;;;;;;;;;;;;;;;;;;4804867;29;20051;-68
2022/03/24 05:38:39;;;;;;;130.77;77.05;;;;;;;;;;4804181;29;20357;-67
2022/03/24 05:41:05;;;;;;;124.70;75.53;;;;;;;;;;4834449;29;20058;-68
2022/03/24 05:43:32;;;;;;;132.20;81.47;;;;;;;;;;4820782;29;20221;-67
2022/03/24 05:45:58;;;;;;;131.95;80.43;;;;;;;;;;4820576;29;20046;-67
2022/03/24 05:48:24;;;;;;;133.95;79.47;;;;;;;;;;4834635;29;20397;-67
2022/03/24 05:50:50;;;;;;;131.70;78.90;;;;;;;;;;4820424;29;20415;-68
2022/03/24 05:53:17;;;;;;;137.60;84.15;;;;;;;;;;4820555;29;20096;-68
2022/03/24 05:55:43;;;;;;;135.13;82.35;;;;;;;;;;4820123;29;20047;-68
2022/03/24 05:58:09;;;;;;;133.20;82.78;;;;;;;;;;4820308;29;20086;-68
2022/03/24 06:00:37;;;;;;;134.80;82.18;;;;;;;;;;4820519;29;20054;-68
2022/03/24 06:03:03;;;;;;;134.10;81.13;;;;;;;;;;4820656;29;20128;-68
2022/03/24 06:05:29;;;;;;;;;;;;;;;;;;4820601;29;20046;-68
2022/03/24 06:08:00;;;;;;;131.27;78.57;;;;;;;;;;4820137;29;20233;-68
2022/03/24 06:10:27;;;;;;;126.45;76.97;;;;;;;;;;4820345;29;20046;-68
2022/03/24 06:12:53;;;;;;;131.32;78.97;;;;;;;;;;4820340;29;20102;-68
2022/03/24 06:15:19;;;;;;;;;;;;;;;;;;4819809;29;20137;-68
2022/03/24 06:17:46;;;;;;;122.88;75.72;;;;;;;;;;4818680;29;20081;-68
2022/03/24 06:20:13;;;;;;;134.20;81.55;;;;;;;;;;4820281;29;20081;-68
2022/03/24 06:22:44;;;;;;;131.80;79.75;;;;;;;;;;4820115;29;20085;-68
2022/03/24 06:25:10;;;;;;;125.80;75.45;;;;;;;;;;4819982;29;20047;-69
2022/03/24 06:27:36;;;;;;;130.75;80.47;;;;;;;;;;4820238;29;20184;-68
2022/03/24 06:30:05;;;;;;;;;;;;;;;;;;4820184;29;20050;-69
2022/03/24 06:32:31;;;;;;;124.18;77.57;;;;;;;;;;4819999;29;19936;-68
2022/03/24 06:34:58;;;;;;;130.73;79.43;;;;;;;;;;4820993;29;20434;-69
2022/03/24 06:37:24;;;;;;;124.35;77.80;;;;;;;;;;4833490;29;20054;-68
2022/03/24 06:39:50;;;;;;;122.05;76.90;;;;;;;;;;4819813;29;20417;-68
2022/03/24 06:42:16;;;;;;;125.97;76.28;;;;;;;;;;4819877;29;20180;-68
2022/03/24 06:44:44;;;;;;;130.30;76.97;;;;;;;;;;4819919;29;20146;-68
2022/03/24 06:47:10;;;;;;;119.45;73.93;;;;;;;;;;4833512;29;20487;-68
2022/03/24 06:49:36;;;;;;;124.57;78.47;;;;;;;;;;4820027;29;20046;-68
2022/03/24 06:52:02;;;;;;;126.32;74.50;;;;;;;;;;4819720;29;20100;-69
2022/03/24 06:54:29;;;;;;;123.30;75.35;;;;;;;;;;4819674;29;20054;-66
2022/03/24 06:56:56;;;;;;;128.35;78.32;;;;;;;;;;4819360;29;20054;-67
2022/03/24 06:59:22;;;;;;;121.38;73.15;;;;;;;;;;4832890;29;20106;-66
2022/03/24 07:01:49;;;;;;;122.57;74.03;;;;;;;;;;4819436;29;20055;-66
2022/03/24 07:04:16;;;;;;;122.43;72.60;;;;;;;;;;4819983;29;20069;-69
2022/03/24 07:06:42;;;;;;;123.32;75.85;;;;;;;;;;4819460;29;20051;-66
2022/03/24 07:09:08;;;;;;;128.00;76.47;;;;;;;;;;4819071;29;20062;-68
2022/03/24 07:11:35;;;;;;;129.05;75.05;;;;;;;;;;4819287;29;20206;-68
2022/03/24 07:14:01;;;;;;;114.43;70.30;;;;;;;;;;4832181;29;20060;-70
2022/03/24 07:16:27;;;;;;;127.40;75.47;;;;;;;;;;4819121;29;20142;-68
2022/03/24 07:18:57;;;;;;;124.32;75.13;;;;;;;;;;4832429;29;20050;-67
2022/03/24 07:21:23;;;;;;;;;;;;;;;;;;4817279;29;20058;-68
2022/03/24 07:23:49;;;;;;;123.47;74.50;;;;;;;;;;4818610;29;20005;-69
2022/03/24 07:26:15;;;;;;;119.32;73.30;;;;;;;;;;4832131;29;20137;-69
2022/03/24 07:28:41;;;;;;;;;;;;;;;;;;4819440;29;20131;-69
2022/03/24 07:31:15;;;;;;;118.15;76.25;;;;;;;;;;4818664;29;19924;-69
2022/03/24 07:33:41;;;;;;;126.53;75.47;;;;;;;;;;4818512;29;20058;-68
2022/03/24 07:36:09;;;;;;;123.28;74.78;;;;;;;;;;4831921;29;20074;-69
2022/03/24 07:38:35;;;;;;;127.95;79.60;;;;;;;;;;4818847;29;20230;-69
2022/03/24 07:41:01;;;;;;;122.40;77.90;;;;;;;;;;4818755;29;20058;-70
2022/03/24 07:43:28;;;;;;;126.35;74.20;;;;;;;;;;4818282;29;20082;-70
2022/03/24 07:45:54;;;;;;;125.72;71.97;;;;;;;;;;4818748;29;20072;-70
2022/03/24 07:48:25;;;;;;;120.20;69.47;;;;;;;;;;4817863;29;20460;-69
2022/03/24 07:50:52;;;;;;;116.57;69.57;;;;;;;;;;4818335;29;20078;-70
2022/03/24 07:53:34;;;;;;;111.53;68.35;;;;;;;;;;4817990;29;20054;-71
2022/03/24 07:56:01;;;;;;;121.10;70.68;;;;;;;;;;4818170;29;20119;-71
2022/03/24 07:58:27;;;;;;;112.95;67.60;;;;;;;;;;4801784;29;20057;-70
2022/03/24 08:00:57;;;;;;;;;;;;;;;;;;4818433;29;20137;-70
2022/03/24 08:03:23;;;;;;;100.95;63.40;;;;;;;;;;4816839;29;19925;-69
2022/03/24 08:05:49;;;;;;;97.85;60.70;;;;;;;;;;4818097;29;20057;-71
2022/03/24 08:08:18;;;;;;;97.43;61.00;;;;;;;;;;4818138;29;20166;-72
2022/03/24 08:10:46;;;;;;;94.90;58.40;;;;;;;;;;4818090;29;20054;-71
2022/03/24 08:13:15;;;;;;;96.40;57.85;;;;;;;;;;4818258;29;20532;-74
2022/03/24 08:15:42;;;;;;;91.45;54.90;;;;;;;;;;4818124;29;20054;-73
2022/03/24 08:18:08;;;;;;;;;;;;;;;;;;4832302;29;20199;-73
2022/03/24 08:20:35;;;;;;;84.68;54.80;;;;;;;;;;4816740;29;19968;-72
2022/03/24 08:23:02;;;;;;;87.13;52.72;;;;;;;;;;4818277;29;20140;-72
2022/03/24 08:25:28;;;;;;;82.88;52.15;;;;;;;;;;4818215;29;20129;-72
2022/03/24 08:27:54;;;;;;;91.45;54.13;;;;;;;;;;4818095;29;20069;-70
2022/03/24 08:30:21;;;;;;;88.10;53.17;;;;;;;;;;4802020;29;20058;-70
2022/03/24 08:32:47;;;;;;;84.10;52.97;;;;;;;;;;4817940;29;20103;-71
2022/03/24 08:35:13;;;;;;;89.50;53.75;;;;;;;;;;4817899;29;20062;-71
2022/03/24 08:37:39;;;;;;;92.90;55.42;;;;;;;;;;4801250;29;20050;-70
2022/03/24 08:40:05;;;;;;;87.45;53.28;;;;;;;;;;4817908;29;20130;-69
2022/03/24 08:42:31;;;;;;;91.65;54.75;;;;;;;;;;4817912;29;20125;-71
2022/03/24 08:44:58;;;;;;;84.10;55.08;;;;;;;;;;4831543;29;20486;-71
2022/03/24 08:47:24;;;;;;;92.63;55.60;;;;;;;;;;4800276;29;20073;-71
2022/03/24 08:49:50;;;;;;;95.32;57.05;;;;;;;;;;4817696;29;20427;-70
2022/03/24 08:52:16;;;;;;;94.03;58.10;;;;;;;;;;4801001;29;20051;-70
2022/03/24 08:54:42;;;;;;;100.43;57.42;;;;;;;;;;4831426;29;20186;-71
2022/03/24 08:57:09;;;;;;;95.63;57.88;;;;;;;;;;4786055;29;20372;-71
2022/03/24 08:59:37;;;;;;;101.93;56.90;;;;;;;;;;4818266;29;20184;-72
2022/03/24 09:02:04;;;;;;;97.45;59.22;;;;;;;;;;4820689;29;20050;-72
2022/03/24 09:04:30;;;;;;;94.00;55.85;;;;;;;;;;4804460;29;20136;-74
2022/03/24 09:06:56;;;;;;;98.55;57.90;;;;;;;;;;4820618;29;20101;-71
2022/03/24 09:09:25;;;;;;;90.85;55.70;;;;;;;;;;4820607;29;20089;-73
2022/03/24 09:11:52;;;;;;;86.95;55.45;;;;;;;;;;4820621;29;20149;-73
2022/03/24 09:14:19;;;;;;;;;;;;;;;;;;4819044;29;20154;-74
2022/03/24 09:16:45;;;;;;;84.68;52.72;;;;;;;;;;4818890;29;20004;-72
2022/03/24 09:19:12;;;;;;;86.43;52.70;;;;;;;;;;4820419;29;20130;-74
2022/03/24 09:21:38;;;;;;;83.78;50.80;;;;;;;;;;4804248;29;20061;-70
2022/03/24 09:24:04;;;;;;;;;;;;;;;;;;4820098;29;20062;-71
2022/03/24 09:26:30;;;;;;;86.60;52.75;;;;;;;;;;4819035;29;19932;-73
2022/03/24 09:28:56;;;;;;;87.18;51.65;;;;;;;;;;4820674;29;20058;-69
2022/03/24 09:31:22;;;;;;;;;;;;;;;;;;4820840;29;20418;-71
2022/03/24 09:33:49;;;;;;;87.30;49.85;;;;;;;;;;4820490;29;20012;-75
2022/03/24 09:36:15;;;;;;;84.65;47.13;;;;;;;;;;4803673;29;20058;-73
2022/03/24 09:38:41;;;;;;;79.25;47.35;;;;;;;;;;4820222;29;20046;-73
2022/03/24 09:41:08;;;;;;;85.05;49.88;;;;;;;;;;4820451;29;20076;-72
2022/03/24 09:43:37;;;;;;;86.43;48.45;;;;;;;;;;4820439;29;20062;-75
2022/03/24 09:46:03;;;;;;;81.93;49.45;;;;;;;;;;4834039;29;20066;-71
2022/03/24 09:48:29;;;;;;;81.25;48.35;;;;;;;;;;4819549;29;20349;-70
2022/03/24 09:50:55;;;;;;;77.82;49.10;;;;;;;;;;4820127;29;20136;-72
2022/03/24 09:53:23;;;;;;;;;;;;;;;;;;4803882;29;20123;-72
2022/03/24 09:55:49;;;;;;;89.03;50.08;;;;;;;;;;4819744;29;19932;-67
2022/03/24 09:58:16;;;;;;;82.20;48.58;;;;;;;;;;4819851;29;20149;-71
2022/03/24 10:00:43;;;;;;;82.18;50.13;;;;;;;;;;4833037;29;20054;-68
2022/03/24 10:03:21;;;;;;;82.35;50.88;;;;;;;;;;4820072;29;20066;-72
2022/03/24 10:05:58;;;;;;;83.38;50.75;;;;;;;;;;4819881;29;20050;-74
2022/03/24 10:08:24;;;;;;;;;;;;;;;;;;4820316;29;20109;-69
2022/03/24 10:10:56;;;;;;;85.47;50.50;;;;;;;;;;4802782;29;19968;-69
2022/03/24 10:13:40;;;;;;;78.70;48.22;;;;;;;;;;4820083;29;20058;-70
2022/03/24 10:16:07;;;;;;;81.28;48.60;;;;;;;;;;4819187;29;20085;-70
2022/03/24 10:18:33;;;;;;;80.38;49.78;;;;;;;;;;4819575;29;20206;-67
2022/03/24 10:21:03;;;;;;;82.55;46.97;;;;;;;;;;4819563;29;20077;-69
2022/03/24 10:23:45;;;;;;;77.78;48.10;;;;;;;;;;4818658;29;20058;-71
2022/03/24 10:26:11;;;;;;;78.03;47.92;;;;;;;;;;4833236;29;20087;-70
2022/03/24 10:28:37;;;;;;;71.40;44.88;;;;;;;;;;4803141;29;20077;-71
2022/03/24 10:31:03;;;;;;;81.32;47.13;;;;;;;;;;4819519;29;20113;-67
2022/03/24 10:33:30;;;;;;;81.88;48.65;;;;;;;;;;4819092;29;20149;-69
2022/03/24 10:36:10;;;;;;;76.88;47.13;;;;;;;;;;4819472;29;20141;-68
2022/03/24 10:38:37;;;;;;;71.75;44.97;;;;;;;;;;4802446;29;20095;-71
2022/03/24 10:41:13;;;;;;;77.93;44.97;;;;;;;;;;4833341;29;20050;-70
2022/03/24 10:43:39;;;;;;;74.13;44.63;;;;;;;;;;4819503;29;20069;-68
2022/03/24 10:46:12;;;;;;;77.38;43.78;;;;;;;;;;4819581;29;20099;-66
2022/03/24 10:48:38;;;;;;;72.30;41.50;;;;;;;;;;4819289;29;20070;-70
2022/03/24 10:51:04;;;;;;;69.75;42.42;;;;;;;;;;4787448;29;20133;-70
2022/03/24 10:53:38;;;;;;;68.93;42.35;;;;;;;;;;4832731;29;20076;-71
2022/03/24 10:56:17;;;;;;;63.65;38.45;;;;;;;;;;4802275;29;20491;-72
2022/03/24 10:58:46;;;;;;;58.53;34.80;;;;;;;;;;4802430;29;20517;-64
2022/03/24 11:01:14;;;;;;;69.97;39.47;;;;;;;;;;4819318;29;20142;-71
2022/03/24 11:03:40;;;;;;;65.45;39.30;;;;;;;;;;4819386;29;20122;-67
2022/03/24 11:06:11;;;;;;;63.28;36.55;;;;;;;;;;4833422;29;20126;-70
2022/03/24 11:08:38;;;;;;;62.17;38.45;;;;;;;;;;4820961;29;20434;-72
2022/03/24 11:11:04;;;;;;;;;;;;;;;;;;4787684;29;20046;-70
2022/03/24 11:13:39;;;;;;;63.63;37.97;;;;;;;;;;4819106;29;19932;-74
2022/03/24 11:16:05;;;;;;;65.53;39.53;;;;;;;;;;4831485;29;20062;-70
2022/03/24 11:18:32;;;;;;;60.80;38.88;;;;;;;;;;4818476;29;20130;-80
2022/03/24 11:21:03;;;;;;;68.63;38.92;;;;;;;;;;4832432;29;20126;-69
2022/03/24 11:23:31;;;;;;;64.82;37.72;;;;;;;;;;4818046;29;20050;-69
2022/03/24 11:25:58;;;;;;;65.88;39.70;;;;;;;;;;4817903;29;20214;-69
2022/03/24 11:28:24;;;;;;;66.63;38.00;;;;;;;;;;4819001;29;20057;-71
2022/03/24 11:30:51;;;;;;;69.05;37.40;;;;;;;;;;4832457;29;20050;-71
2022/03/24 11:33:17;;;;;;;71.20;39.35;;;;;;;;;;4818747;29;20112;-70
2022/03/24 11:35:43;;;;;;;63.63;40.30;;;;;;;;;;4831739;29;20056;-67
2022/03/24 11:38:10;;;;;;;70.05;42.42;;;;;;;;;;4818764;29;20111;-74
2022/03/24 11:40:36;;;;;;;74.68;41.22;;;;;;;;;;4832973;29;20062;-69
2022/03/24 11:43:08;;;;;;;70.53;42.80;;;;;;;;;;4802345;29;20073;-68
2022/03/24 11:45:54;;;;;;;70.65;42.42;;;;;;;;;;4819004;29;20090;-70
2022/03/24 11:48:39;;;;;;;74.07;42.40;;;;;;;;;;4818660;29;20057;-72
2022/03/24 11:51:07;;;;;;;72.45;43.20;;;;;;;;;;4818706;29;20096;-70
2022/03/24 11:53:38;;;;;;;72.57;43.25;;;;;;;;;;4818349;29;20471;-70
2022/03/24 11:56:05;;;;;;;64.20;41.30;;;;;;;;;;4818658;29;20475;-65
2022/03/24 11:58:31;;;;;;;68.47;39.60;;;;;;;;;;4818678;29;20127;-69
2022/03/24 12:00:57;;;;;;;63.42;40.40;;;;;;;;;;4818306;29;20448;-68
2022/03/24 12:03:39;;;;;;;67.80;41.17;;;;;;;;;;4818688;29;20054;-70
2022/03/24 12:06:05;;;;;;;66.03;40.53;;;;;;;;;;4818373;29;20207;-69
2022/03/24 12:08:42;;;;;;;67.95;41.00;;;;;;;;;;4818097;29;20344;-70
2022/03/24 12:11:27;;;;;;;60.38;39.22;;;;;;;;;;4818145;29;20062;-68
2022/03/24 12:13:57;;;;;;;61.95;39.50;;;;;;;;;;4817427;29;20081;-66
2022/03/24 12:16:27;;;;;;;60.22;38.28;;;;;;;;;;4801568;29;20596;-66
2022/03/24 12:18:54;;;;;;;55.25;34.00;;;;;;;;;;4832202;29;20069;-68
2022/03/24 12:21:20;;;;;;;;;;;;;;;;;;4819138;29;20133;-66
2022/03/24 12:24:09;;;;;;;63.40;35.70;;;;;;;;;;4818215;29;20462;-67
2022/03/24 12:26:39;;;;;;;59.60;35.33;;;;;;;;;;4795849;29;20054;-66
2022/03/24 12:29:11;;;;;;;55.78;34.30;;;;;;;;;;4818189;29;20433;-68
2022/03/24 12:32:10;;;;;;;60.80;34.55;;;;;;;;;;4818456;29;20238;-69
2022/03/24 12:34:39;;;;;;;55.78;33.97;;;;;;;;;;4779930;29;20058;-69
2022/03/24 12:37:23;;;;;;;60.83;34.45;;;;;;;;;;4821679;29;20145;-67
2022/03/24 12:40:09;;;;;;;60.92;34.28;;;;;;;;;;4821469;29;20120;-67
2022/03/24 12:42:46;;;;;;;65.60;32.55;;;;;;;;;;4835320;29;20058;-65
2022/03/24 12:45:28;;;;;;;52.35;33.60;;;;;;;;;;4834898;29;20058;-64
2022/03/24 12:48:14;;;;;;;59.63;33.58;;;;;;;;;;4821127;29;20054;-71
2022/03/24 12:50:44;;;;;;;61.47;35.85;;;;;;;;;;4821505;29;20419;-68
2022/03/24 12:53:11;;;;;;;58.42;36.20;;;;;;;;;;4821708;29;20065;-67
2022/03/24 12:55:37;;;;;;;62.15;36.25;;;;;;;;;;4835585;29;20050;-67
2022/03/24 12:58:12;;;;;;;63.13;36.20;;;;;;;;;;4821409;29;20530;-67
2022/03/24 13:00:40;;;;;;;60.28;34.10;;;;;;;;;;4804621;29;20345;-65
2022/03/24 13:03:07;;;;;;;57.50;33.45;;;;;;;;;;4804508;29;20078;-64
2022/03/24 13:05:34;;;;;;;57.60;34.90;;;;;;;;;;4821008;29;20190;-68
2022/03/24 13:08:02;;;;;;;53.58;34.45;;;;;;;;;;4820895;29;20564;-67
2022/03/24 13:10:31;;;;;;;60.17;35.65;;;;;;;;;;4820677;29;20058;-67
2022/03/24 13:13:00;;;;;;;58.63;34.17;;;;;;;;;;4820538;29;20061;-65
2022/03/24 13:15:31;;;;;;;59.03;34.75;;;;;;;;;;4820248;29;20065;-66
2022/03/24 13:18:01;;;;;;;58.25;34.85;;;;;;;;;;4820831;29;20077;-67
2022/03/24 13:20:29;;;;;;;63.17;36.53;;;;;;;;;;4834890;29;20050;-66
2022/03/24 13:23:01;;;;;;;63.08;36.40;;;;;;;;;;4820494;29;20588;-67
2022/03/24 13:25:29;;;;;;;59.10;36.75;;;;;;;;;;4820605;29;20130;-67
2022/03/24 13:27:55;;;;;;;58.50;37.45;;;;;;;;;;4834217;29;20334;-66
2022/03/24 13:30:32;;;;;;;64.15;39.05;;;;;;;;;;4834453;29;20149;-66
2022/03/24 13:33:03;;;;;;;56.70;32.25;;;;;;;;;;4834044;29;20145;-64
2022/03/24 13:35:37;;;;;;;61.42;38.95;;;;;;;;;;4820316;29;20105;-65
2022/03/24 13:38:10;;;;;;;65.07;40.08;;;;;;;;;;4820460;29;20069;-66
2022/03/24 13:40:42;;;;;;;66.97;38.47;;;;;;;;;;4820286;29;20065;-66
2022/03/24 13:43:13;;;;;;;68.03;42.45;;;;;;;;;;4820188;29;20093;-67
2022/03/24 13:45:41;;;;;;;61.85;36.55;;;;;;;;;;4833371;29;20118;-65
2022/03/24 13:48:17;;;;;;;69.00;40.35;;;;;;;;;;4820059;29;20142;-65
2022/03/24 13:50:45;;;;;;;71.80;43.15;;;;;;;;;;4820149;29;20062;-65
2022/03/24 13:53:14;;;;;;;74.13;43.50;;;;;;;;;;4833837;29;20503;-66
2022/03/24 13:55:41;;;;;;;78.28;47.75;;;;;;;;;;4820345;29;20125;-66
2022/03/24 13:58:08;;;;;;;72.35;43.92;;;;;;;;;;4820279;29;20054;-65
2022/03/24 14:00:46;;;;;;;74.97;45.35;;;;;;;;;;4820240;29;20061;-67
2022/03/24 14:03:12;;;;;;;76.20;45.05;;;;;;;;;;4820517;29;20058;-66
2022/03/24 14:05:46;;;;;;;72.95;41.60;;;;;;;;;;4819975;29;20050;-65
2022/03/24 14:08:16;;;;;;;76.30;45.92;;;;;;;;;;4820195;29;20066;-65
2022/03/24 14:10:46;;;;;;;68.32;38.35;;;;;;;;;;4818711;29;20092;-65
2022/03/24 14:13:13;;;;;;;75.75;44.53;;;;;;;;;;4820035;29;20345;-64
2022/03/24 14:15:39;;;;;;;78.00;45.78;;;;;;;;;;4819422;29;20429;-64
2022/03/24 14:18:05;;;;;;;;;;;;;;;;;;4820179;29;20058;-64
2022/03/24 14:20:40;;;;;;;70.57;42.28;;;;;;;;;;4820212;29;19943;-66
2022/03/24 14:23:06;;;;;;;72.40;43.35;;;;;;;;;;4820441;29;20050;-66
2022/03/24 14:25:32;;;;;;;79.00;45.17;;;;;;;;;;4803601;29;20069;-67
2022/03/24 14:27:58;;;;;;;78.88;43.65;;;;;;;;;;4820111;29;20334;-66
2022/03/24 14:30:30;;;;;;;68.70;40.17;;;;;;;;;;4820000;29;20084;-66